sensor_id;sensor_type;location;lat;lon;timestamp;temperature;humidity
12166;DHT22;6146;48.128;11.476;2023-04-01T00:02:19;7.80;99.90
12166;DHT22;6146;48.128;11.476;2023-04-01T00:04:45;7.80;99.90
12166;DHT22;6146;48.128;11.476;2023-04-01T00:07:11;7.80;99.90
12166;DHT22;6146;48.128;11.476;2023-04-01T00:09:36;7.70;99.90
12166;DHT22;6146;48.128;11.476;2023-04-01T00:12:03;7.80;99.90
12166;DHT22;6146;48.128;11.476;2023-04-01T00:14:29;7.70;99.90
12166;DHT22;6146;48.128;11.476;2023-04-01T00:16:55;7.80;99.90
12166;DHT22;6146;48.128;11.476;2023-04-01T00:19:20;7.80;99.90
12166;DHT22;6146;48.128;11.476;2023-04-01T00:21:46;7.70;99.90
12166;DHT22;6146;48.128;11.476;2023-04-01T00:24:11;7.70;99.90
12166;DHT22;6146;48.128;11.476;2023-04-01T00:26:37;7.70;99.90
12166;DHT22;6146;48.128;11.476;2023-04-01T00:29:03;7.70;99.90
12166;DHT22;6146;48.128;11.476;2023-04-01T00:31:28;7.70;99.90
12166;DHT22;6146;48.128;11.476;2023-04-01T00:33:55;7.70;99.90
12166;DHT22;6146;48.128;11.476;2023-04-01T00:36:21;7.60;99.90
12166;DHT22;6146;48.128;11.476;2023-04-01T00:38:48;7.60;99.90
12166;DHT22;6146;48.128;11.476;2023-04-01T00:41:16;7.60;99.90
12166;DHT22;6146;48.128;11.476;2023-04-01T00:43:44;7.60;99.90
12166;DHT22;6146;48.128;11.476;2023-04-01T00:46:10;7.50;99.90
12166;DHT22;6146;48.128;11.476;2023-04-01T00:48:39;7.50;99.90
12166;DHT22;6146;48.128;11.476;2023-04-01T00:51:11;7.40;99.90
12166;DHT22;6146;48.128;11.476;2023-04-01T00:53:42;7.50;99.90
12166;DHT22;6146;48.128;11.476;2023-04-01T00:56:18;7.50;99.90
12166;DHT22;6146;48.128;11.476;2023-04-01T00:58:53;7.50;99.90
12166;DHT22;6146;48.128;11.476;2023-04-01T01:01:21;7.60;99.90
12166;DHT22;6146;48.128;11.476;2023-04-01T01:03:48;7.60;99.90
12166;DHT22;6146;48.128;11.476;2023-04-01T01:11:44;7.70;99.90
12166;DHT22;6146;48.128;11.476;2023-04-01T01:17:23;7.70;99.90
12166;DHT22;6146;48.128;11.476;2023-04-01T01:31:23;7.90;99.90
12166;DHT22;6146;48.128;11.476;2023-04-01T01:34:16;7.90;99.90
12166;DHT22;6146;48.128;11.476;2023-04-01T01:36:48;7.90;99.90
12166;DHT22;6146;48.128;11.476;2023-04-01T01:39:16;7.90;99.90
12166;DHT22;6146;48.128;11.476;2023-04-01T01:41:45;7.90;99.90
12166;DHT22;6146;48.128;11.476;2023-04-01T01:44:17;7.80;99.90
12166;DHT22;6146;48.128;11.476;2023-04-01T01:46:44;7.80;99.90
12166;DHT22;6146;48.128;11.476;2023-04-01T01:49:11;7.80;99.90
12166;DHT22;6146;48.128;11.476;2023-04-01T01:51:38;7.80;99.90
12166;DHT22;6146;48.128;11.476;2023-04-01T01:54:05;7.80;99.90
12166;DHT22;6146;48.128;11.476;2023-04-01T01:56:31;7.80;99.90
12166;DHT22;6146;48.128;11.476;2023-04-01T01:59:03;7.90;99.90
12166;DHT22;6146;48.128;11.476;2023-04-01T02:01:33;7.90;99.90
12166;DHT22;6146;48.128;11.476;2023-04-01T02:04:02;7.90;99.90
12166;DHT22;6146;48.128;11.476;2023-04-01T02:06:31;7.90;99.90
12166;DHT22;6146;48.128;11.476;2023-04-01T02:09:04;7.90;99.90
12166;DHT22;6146;48.128;11.476;2023-04-01T02:14:17;7.90;99.90
12166;DHT22;6146;48.128;11.476;2023-04-01T02:19:15;7.80;99.90
12166;DHT22;6146;48.128;11.476;2023-04-01T02:21:50;7.90;99.90
12166;DHT22;6146;48.128;11.476;2023-04-01T02:24:19;7.80;99.90
12166;DHT22;6146;48.128;11.476;2023-04-01T02:26:49;7.80;99.90
12166;DHT22;6146;48.128;11.476;2023-04-01T02:29:18;7.80;99.90
12166;DHT22;6146;48.128;11.476;2023-04-01T02:31:44;7.80;99.90
12166;DHT22;6146;48.128;11.476;2023-04-01T02:34:11;7.80;99.90
12166;DHT22;6146;48.128;11.476;2023-04-01T02:36:36;7.80;99.90
12166;DHT22;6146;48.128;11.476;2023-04-01T02:39:03;7.80;99.90
12166;DHT22;6146;48.128;11.476;2023-04-01T02:41:30;7.90;99.90
12166;DHT22;6146;48.128;11.476;2023-04-01T02:43:56;7.80;99.90
12166;DHT22;6146;48.128;11.476;2023-04-01T02:46:24;7.80;99.90
12166;DHT22;6146;48.128;11.476;2023-04-01T02:48:49;7.80;99.90
12166;DHT22;6146;48.128;11.476;2023-04-01T02:51:15;7.80;99.90
12166;DHT22;6146;48.128;11.476;2023-04-01T02:53:40;7.80;99.90
12166;DHT22;6146;48.128;11.476;2023-04-01T02:56:06;7.80;99.90
12166;DHT22;6146;48.128;11.476;2023-04-01T02:58:31;7.80;99.90
12166;DHT22;6146;48.128;11.476;2023-04-01T03:00:57;7.80;99.90
12166;DHT22;6146;48.128;11.476;2023-04-01T03:03:23;7.80;99.90
12166;DHT22;6146;48.128;11.476;2023-04-01T03:05:48;7.80;99.90
12166;DHT22;6146;48.128;11.476;2023-04-01T03:08:14;7.80;99.90
12166;DHT22;6146;48.128;11.476;2023-04-01T03:10:40;7.70;99.90
12166;DHT22;6146;48.128;11.476;2023-04-01T03:13:05;7.70;99.90
12166;DHT22;6146;48.128;11.476;2023-04-01T03:15:31;7.70;99.90
12166;DHT22;6146;48.128;11.476;2023-04-01T03:17:57;7.70;99.90
12166;DHT22;6146;48.128;11.476;2023-04-01T03:20:22;7.80;99.90
12166;DHT22;6146;48.128;11.476;2023-04-01T03:22:48;7.70;99.90
12166;DHT22;6146;48.128;11.476;2023-04-01T03:25:14;8.50;99.90
12166;DHT22;6146;48.128;11.476;2023-04-01T03:27:39;7.60;99.90
12166;DHT22;6146;48.128;11.476;2023-04-01T03:30:06;7.50;99.90
12166;DHT22;6146;48.128;11.476;2023-04-01T03:32:32;7.50;99.90
12166;DHT22;6146;48.128;11.476;2023-04-01T03:34:58;7.40;99.90
12166;DHT22;6146;48.128;11.476;2023-04-01T03:37:23;7.40;99.90
12166;DHT22;6146;48.128;11.476;2023-04-01T03:39:49;7.30;99.90
12166;DHT22;6146;48.128;11.476;2023-04-01T03:42:15;7.30;99.90
12166;DHT22;6146;48.128;11.476;2023-04-01T03:44:41;7.20;99.90
12166;DHT22;6146;48.128;11.476;2023-04-01T03:47:06;7.20;99.90
12166;DHT22;6146;48.128;11.476;2023-04-01T03:49:33;7.30;99.90
12166;DHT22;6146;48.128;11.476;2023-04-01T03:51:58;7.30;99.90
12166;DHT22;6146;48.128;11.476;2023-04-01T03:54:24;7.30;99.90
12166;DHT22;6146;48.128;11.476;2023-04-01T03:56:50;7.30;99.90
12166;DHT22;6146;48.128;11.476;2023-04-01T03:59:15;7.30;99.90
12166;DHT22;6146;48.128;11.476;2023-04-01T04:01:41;7.30;99.90
12166;DHT22;6146;48.128;11.476;2023-04-01T04:04:07;7.20;99.90
12166;DHT22;6146;48.128;11.476;2023-04-01T04:06:33;7.20;99.90
12166;DHT22;6146;48.128;11.476;2023-04-01T04:08:59;7.20;99.90
12166;DHT22;6146;48.128;11.476;2023-04-01T04:11:25;7.10;99.90
12166;DHT22;6146;48.128;11.476;2023-04-01T04:13:51;7.10;99.90
12166;DHT22;6146;48.128;11.476;2023-04-01T04:16:18;7.10;99.90
12166;DHT22;6146;48.128;11.476;2023-04-01T04:18:43;7.20;99.90
12166;DHT22;6146;48.128;11.476;2023-04-01T04:21:12;7.20;99.90
12166;DHT22;6146;48.128;11.476;2023-04-01T04:23:38;7.20;99.90
12166;DHT22;6146;48.128;11.476;2023-04-01T04:26:08;7.30;99.90
12166;DHT22;6146;48.128;11.476;2023-04-01T04:28:34;7.40;99.90
12166;DHT22;6146;48.128;11.476;2023-04-01T04:31:00;7.40;99.90
12166;DHT22;6146;48.128;11.476;2023-04-01T04:33:26;7.40;99.90
12166;DHT22;6146;48.128;11.476;2023-04-01T04:35:55;7.40;99.90
12166;DHT22;6146;48.128;11.476;2023-04-01T04:38:21;7.40;99.90
12166;DHT22;6146;48.128;11.476;2023-04-01T04:40:47;7.40;99.90
12166;DHT22;6146;48.128;11.476;2023-04-01T04:43:14;7.40;99.90
12166;DHT22;6146;48.128;11.476;2023-04-01T04:45:40;7.40;99.90
12166;DHT22;6146;48.128;11.476;2023-04-01T04:48:08;7.40;99.90
12166;DHT22;6146;48.128;11.476;2023-04-01T04:50:34;7.50;99.90
12166;DHT22;6146;48.128;11.476;2023-04-01T04:53:00;7.50;99.90
12166;DHT22;6146;48.128;11.476;2023-04-01T04:55:26;7.50;99.90
12166;DHT22;6146;48.128;11.476;2023-04-01T04:57:51;7.60;99.90
12166;DHT22;6146;48.128;11.476;2023-04-01T05:00:17;7.60;99.90
12166;DHT22;6146;48.128;11.476;2023-04-01T05:02:43;7.70;99.90
12166;DHT22;6146;48.128;11.476;2023-04-01T05:05:08;7.70;99.90
12166;DHT22;6146;48.128;11.476;2023-04-01T05:07:35;7.80;99.90
12166;DHT22;6146;48.128;11.476;2023-04-01T05:10:01;7.80;99.90
12166;DHT22;6146;48.128;11.476;2023-04-01T05:12:27;7.80;99.90
12166;DHT22;6146;48.128;11.476;2023-04-01T05:14:52;7.80;99.90
12166;DHT22;6146;48.128;11.476;2023-04-01T05:17:18;7.90;99.90
12166;DHT22;6146;48.128;11.476;2023-04-01T05:19:43;8.00;99.90
12166;DHT22;6146;48.128;11.476;2023-04-01T05:22:09;8.00;99.90
12166;DHT22;6146;48.128;11.476;2023-04-01T05:24:35;8.00;99.90
12166;DHT22;6146;48.128;11.476;2023-04-01T05:27:00;8.10;99.90
12166;DHT22;6146;48.128;11.476;2023-04-01T05:29:26;8.20;99.90
12166;DHT22;6146;48.128;11.476;2023-04-01T05:31:52;8.20;99.90
12166;DHT22;6146;48.128;11.476;2023-04-01T05:34:18;8.20;99.90
12166;DHT22;6146;48.128;11.476;2023-04-01T05:36:44;8.30;99.90
12166;DHT22;6146;48.128;11.476;2023-04-01T05:39:09;8.40;99.90
12166;DHT22;6146;48.128;11.476;2023-04-01T05:41:36;8.60;99.90
12166;DHT22;6146;48.128;11.476;2023-04-01T05:44:02;8.80;99.90
12166;DHT22;6146;48.128;11.476;2023-04-01T05:46:28;9.60;99.90
12166;DHT22;6146;48.128;11.476;2023-04-01T05:48:53;9.90;99.90
12166;DHT22;6146;48.128;11.476;2023-04-01T05:51:19;9.80;99.90
12166;DHT22;6146;48.128;11.476;2023-04-01T05:53:45;10.10;99.90
12166;DHT22;6146;48.128;11.476;2023-04-01T05:56:11;10.30;99.90
12166;DHT22;6146;48.128;11.476;2023-04-01T05:58:37;10.70;99.90
12166;DHT22;6146;48.128;11.476;2023-04-01T06:01:04;11.20;99.90
12166;DHT22;6146;48.128;11.476;2023-04-01T06:03:30;11.40;99.90
12166;DHT22;6146;48.128;11.476;2023-04-01T06:05:56;11.50;99.90
12166;DHT22;6146;48.128;11.476;2023-04-01T06:08:21;11.70;99.90
12166;DHT22;6146;48.128;11.476;2023-04-01T06:14:00;11.20;99.90
12166;DHT22;6146;48.128;11.476;2023-04-01T06:16:52;10.70;99.90
12166;DHT22;6146;48.128;11.476;2023-04-01T06:36:27;9.60;99.90
12166;DHT22;6146;48.128;11.476;2023-04-01T06:44:54;9.60;99.90
12166;DHT22;6146;48.128;11.476;2023-04-01T06:47:37;9.60;99.90
12166;DHT22;6146;48.128;11.476;2023-04-01T06:50:17;9.70;99.90
12166;DHT22;6146;48.128;11.476;2023-04-01T06:53:31;9.70;99.90
12166;DHT22;6146;48.128;11.476;2023-04-01T06:56:10;9.80;99.90
12166;DHT22;6146;48.128;11.476;2023-04-01T07:01:34;10.50;99.90
12166;DHT22;6146;48.128;11.476;2023-04-01T07:04:06;10.50;99.90
12166;DHT22;6146;48.128;11.476;2023-04-01T07:06:36;10.70;99.90
12166;DHT22;6146;48.128;11.476;2023-04-01T07:09:09;10.60;99.90
12166;DHT22;6146;48.128;11.476;2023-04-01T07:11:37;10.70;99.90
12166;DHT22;6146;48.128;11.476;2023-04-01T07:14:10;11.00;99.90
12166;DHT22;6146;48.128;11.476;2023-04-01T07:16:43;11.50;99.90
12166;DHT22;6146;48.128;11.476;2023-04-01T07:22:46;14.00;99.90
12166;DHT22;6146;48.128;11.476;2023-04-01T07:25:21;14.70;99.90
12166;DHT22;6146;48.128;11.476;2023-04-01T07:27:48;16.20;99.80
12166;DHT22;6146;48.128;11.476;2023-04-01T07:30:19;17.00;96.40
12166;DHT22;6146;48.128;11.476;2023-04-01T07:45:30;19.30;87.50
12166;DHT22;6146;48.128;11.476;2023-04-01T07:48:22;19.20;86.00
12166;DHT22;6146;48.128;11.476;2023-04-01T07:56:28;14.70;94.30
12166;DHT22;6146;48.128;11.476;2023-04-01T07:59:53;14.00;95.10
12166;DHT22;6146;48.128;11.476;2023-04-01T08:05:34;12.50;99.40
12166;DHT22;6146;48.128;11.476;2023-04-01T08:10:55;11.80;99.90
12166;DHT22;6146;48.128;11.476;2023-04-01T08:13:29;12.20;99.90
12166;DHT22;6146;48.128;11.476;2023-04-01T08:22:02;11.80;99.90
12166;DHT22;6146;48.128;11.476;2023-04-01T08:27:09;12.70;99.90
12166;DHT22;6146;48.128;11.476;2023-04-01T08:29:46;13.30;99.90
12166;DHT22;6146;48.128;11.476;2023-04-01T08:32:17;14.40;99.50
12166;DHT22;6146;48.128;11.476;2023-04-01T08:34:46;16.40;95.70
12166;DHT22;6146;48.128;11.476;2023-04-01T08:37:19;15.60;94.00
12166;DHT22;6146;48.128;11.476;2023-04-01T08:39:50;15.00;95.10
12166;DHT22;6146;48.128;11.476;2023-04-01T08:42:55;14.20;95.90
12166;DHT22;6146;48.128;11.476;2023-04-01T08:45:43;14.00;97.30
12166;DHT22;6146;48.128;11.476;2023-04-01T08:50:40;13.90;96.90
12166;DHT22;6146;48.128;11.476;2023-04-01T08:56:42;15.70;94.50
12166;DHT22;6146;48.128;11.476;2023-04-01T09:27:19;15.80;89.20
12166;DHT22;6146;48.128;11.476;2023-04-01T09:30:27;14.50;91.60
12166;DHT22;6146;48.128;11.476;2023-04-01T09:33:00;14.10;93.90
12166;DHT22;6146;48.128;11.476;2023-04-01T09:38:22;14.70;92.70
12166;DHT22;6146;48.128;11.476;2023-04-01T09:40:58;15.00;92.80
12166;DHT22;6146;48.128;11.476;2023-04-01T09:46:58;16.80;89.10
12166;DHT22;6146;48.128;11.476;2023-04-01T09:52:32;16.50;88.40
12166;DHT22;6146;48.128;11.476;2023-04-01T10:00:52;16.40;88.90
12166;DHT22;6146;48.128;11.476;2023-04-01T10:17:40;14.10;92.70
12166;DHT22;6146;48.128;11.476;2023-04-01T10:20:54;14.10;93.60
12166;DHT22;6146;48.128;11.476;2023-04-01T10:24:07;14.10;92.20
12166;DHT22;6146;48.128;11.476;2023-04-01T10:26:37;13.90;93.60
12166;DHT22;6146;48.128;11.476;2023-04-01T10:29:34;13.60;94.00
12166;DHT22;6146;48.128;11.476;2023-04-01T10:44:25;13.30;95.70
12166;DHT22;6146;48.128;11.476;2023-04-01T10:47:10;12.90;96.60
12166;DHT22;6146;48.128;11.476;2023-04-01T10:58:39;12.70;98.80
12166;DHT22;6146;48.128;11.476;2023-04-01T11:04:22;12.40;99.90
12166;DHT22;6146;48.128;11.476;2023-04-01T11:07:28;12.20;99.90
12166;DHT22;6146;48.128;11.476;2023-04-01T11:32:53;12.00;99.90
12166;DHT22;6146;48.128;11.476;2023-04-01T11:38:35;12.00;99.90
12166;DHT22;6146;48.128;11.476;2023-04-01T11:44:25;12.20;99.90
12166;DHT22;6146;48.128;11.476;2023-04-01T11:49:44;12.20;99.90
12166;DHT22;6146;48.128;11.476;2023-04-01T11:55:10;11.20;99.90
12166;DHT22;6146;48.128;11.476;2023-04-01T11:57:55;11.00;99.90
12166;DHT22;6146;48.128;11.476;2023-04-01T12:00:37;10.70;99.90
12166;DHT22;6146;48.128;11.476;2023-04-01T12:08:55;9.90;99.90
12166;DHT22;6146;48.128;11.476;2023-04-01T12:11:41;8.60;99.90
12166;DHT22;6146;48.128;11.476;2023-04-01T12:16:58;9.80;99.90
12166;DHT22;6146;48.128;11.476;2023-04-01T12:27:45;9.60;99.90
12166;DHT22;6146;48.128;11.476;2023-04-01T12:55:52;9.30;99.90
12166;DHT22;6146;48.128;11.476;2023-04-01T13:01:29;9.30;99.90
12166;DHT22;6146;48.128;11.476;2023-04-01T13:12:29;9.40;99.90
12166;DHT22;6146;48.128;11.476;2023-04-01T13:15:09;9.30;99.90
12166;DHT22;6146;48.128;11.476;2023-04-01T13:20:45;9.40;99.90
12166;DHT22;6146;48.128;11.476;2023-04-01T13:24:00;9.40;99.90
12166;DHT22;6146;48.128;11.476;2023-04-01T13:26:26;9.30;99.90
12166;DHT22;6146;48.128;11.476;2023-04-01T13:29:15;9.30;99.90
12166;DHT22;6146;48.128;11.476;2023-04-01T13:42:51;9.10;99.90
12166;DHT22;6146;48.128;11.476;2023-04-01T13:45:26;9.20;99.90
12166;DHT22;6146;48.128;11.476;2023-04-01T13:51:06;9.30;99.90
12166;DHT22;6146;48.128;11.476;2023-04-01T14:05:29;9.70;99.90
12166;DHT22;6146;48.128;11.476;2023-04-01T14:10:57;9.90;99.90
12166;DHT22;6146;48.128;11.476;2023-04-01T14:13:37;9.90;99.90
12166;DHT22;6146;48.128;11.476;2023-04-01T14:16:38;9.80;99.90
12166;DHT22;6146;48.128;11.476;2023-04-01T14:52:05;10.00;99.90
12166;DHT22;6146;48.128;11.476;2023-04-01T14:54:41;10.00;99.90
12166;DHT22;6146;48.128;11.476;2023-04-01T14:57:22;9.80;99.90
12166;DHT22;6146;48.128;11.476;2023-04-01T15:00:21;9.60;99.90
12166;DHT22;6146;48.128;11.476;2023-04-01T15:03:07;9.60;99.90
12166;DHT22;6146;48.128;11.476;2023-04-01T15:06:27;9.60;99.90
12166;DHT22;6146;48.128;11.476;2023-04-01T15:12:00;9.40;99.90
12166;DHT22;6146;48.128;11.476;2023-04-01T15:17:35;9.40;99.90
12166;DHT22;6146;48.128;11.476;2023-04-01T15:20:33;9.40;99.90
12166;DHT22;6146;48.128;11.476;2023-04-01T15:23:19;9.60;99.90
12166;DHT22;6146;48.128;11.476;2023-04-01T15:26:18;9.80;99.90
12166;DHT22;6146;48.128;11.476;2023-04-01T15:31:54;10.00;99.90
12166;DHT22;6146;48.128;11.476;2023-04-01T15:37:12;10.10;99.90
12166;DHT22;6146;48.128;11.476;2023-04-01T15:40:05;10.20;99.90
12166;DHT22;6146;48.128;11.476;2023-04-01T15:45:13;10.40;99.90
12166;DHT22;6146;48.128;11.476;2023-04-01T15:48:21;10.50;99.90
12166;DHT22;6146;48.128;11.476;2023-04-01T15:59:51;10.40;99.90
12166;DHT22;6146;48.128;11.476;2023-04-01T16:22:23;10.40;99.90
12166;DHT22;6146;48.128;11.476;2023-04-01T16:30:00;10.20;99.90
12166;DHT22;6146;48.128;11.476;2023-04-01T16:32:40;10.10;99.90
12166;DHT22;6146;48.128;11.476;2023-04-01T16:35:21;10.20;99.90
12166;DHT22;6146;48.128;11.476;2023-04-01T16:38:09;10.00;99.90
12166;DHT22;6146;48.128;11.476;2023-04-01T16:40:44;10.00;99.90
12166;DHT22;6146;48.128;11.476;2023-04-01T16:43:35;10.00;99.90
12166;DHT22;6146;48.128;11.476;2023-04-01T16:46:15;9.90;99.90
12166;DHT22;6146;48.128;11.476;2023-04-01T16:51:57;9.80;99.90
12166;DHT22;6146;48.128;11.476;2023-04-01T16:57:21;9.80;99.90
12166;DHT22;6146;48.128;11.476;2023-04-01T16:59:59;9.80;99.90
12166;DHT22;6146;48.128;11.476;2023-04-01T17:02:52;9.70;99.90
12166;DHT22;6146;48.128;11.476;2023-04-01T17:05:40;9.60;99.90
12166;DHT22;6146;48.128;11.476;2023-04-01T17:08:17;9.60;99.90
12166;DHT22;6146;48.128;11.476;2023-04-01T17:13:29;9.70;99.90
12166;DHT22;6146;48.128;11.476;2023-04-01T17:30:02;9.60;99.90
12166;DHT22;6146;48.128;11.476;2023-04-01T17:33:00;9.60;99.90
12166;DHT22;6146;48.128;11.476;2023-04-01T17:35:39;9.50;99.90
12166;DHT22;6146;48.128;11.476;2023-04-01T17:38:39;9.60;99.90
12166;DHT22;6146;48.128;11.476;2023-04-01T17:49:38;9.50;99.90
12166;DHT22;6146;48.128;11.476;2023-04-01T17:58:50;9.40;99.90
12166;DHT22;6146;48.128;11.476;2023-04-01T18:04:40;9.40;99.90
12166;DHT22;6146;48.128;11.476;2023-04-01T18:10:25;9.30;99.90
12166;DHT22;6146;48.128;11.476;2023-04-01T18:13:33;9.30;99.90
12166;DHT22;6146;48.128;11.476;2023-04-01T18:19:06;9.40;99.90
12166;DHT22;6146;48.128;11.476;2023-04-01T18:21:50;9.40;99.90
12166;DHT22;6146;48.128;11.476;2023-04-01T18:24:40;9.30;99.90
12166;DHT22;6146;48.128;11.476;2023-04-01T18:30:00;9.30;99.90
12166;DHT22;6146;48.128;11.476;2023-04-01T18:32:57;9.30;99.90
12166;DHT22;6146;48.128;11.476;2023-04-01T18:35:34;9.30;99.90
12166;DHT22;6146;48.128;11.476;2023-04-01T18:38:13;9.20;99.90
12166;DHT22;6146;48.128;11.476;2023-04-01T18:45:45;9.10;99.90
12166;DHT22;6146;48.128;11.476;2023-04-01T18:53:57;9.00;99.90
12166;DHT22;6146;48.128;11.476;2023-04-01T18:56:35;9.00;99.90
12166;DHT22;6146;48.128;11.476;2023-04-01T18:59:26;9.00;99.90
12166;DHT22;6146;48.128;11.476;2023-04-01T19:02:25;9.00;99.90
12166;DHT22;6146;48.128;11.476;2023-04-01T19:05:11;9.00;99.90
12166;DHT22;6146;48.128;11.476;2023-04-01T19:07:45;9.00;99.90
12166;DHT22;6146;48.128;11.476;2023-04-01T19:13:19;8.90;99.90
12166;DHT22;6146;48.128;11.476;2023-04-01T19:15:59;9.00;99.90
12166;DHT22;6146;48.128;11.476;2023-04-01T19:21:20;8.90;99.90
12166;DHT22;6146;48.128;11.476;2023-04-01T19:32:14;8.80;99.90
12166;DHT22;6146;48.128;11.476;2023-04-01T19:35:09;8.70;99.90
12166;DHT22;6146;48.128;11.476;2023-04-01T19:37:53;8.70;99.90
12166;DHT22;6146;48.128;11.476;2023-04-01T19:43:29;8.70;99.90
12166;DHT22;6146;48.128;11.476;2023-04-01T19:57:27;8.40;99.90
12166;DHT22;6146;48.128;11.476;2023-04-01T20:00:37;8.30;99.90
12166;DHT22;6146;48.128;11.476;2023-04-01T20:03:15;8.30;99.90
12166;DHT22;6146;48.128;11.476;2023-04-01T20:06:20;8.20;99.90
12166;DHT22;6146;48.128;11.476;2023-04-01T20:09:05;8.10;99.90
12166;DHT22;6146;48.128;11.476;2023-04-01T20:11:38;8.00;99.90
12166;DHT22;6146;48.128;11.476;2023-04-01T20:14:18;7.90;99.90
12166;DHT22;6146;48.128;11.476;2023-04-01T20:19:13;7.80;99.90
12166;DHT22;6146;48.128;11.476;2023-04-01T20:21:46;7.80;99.90
12166;DHT22;6146;48.128;11.476;2023-04-01T20:24:33;7.70;99.90
12166;DHT22;6146;48.128;11.476;2023-04-01T20:27:10;7.80;99.90
12166;DHT22;6146;48.128;11.476;2023-04-01T20:38:17;7.70;99.90
12166;DHT22;6146;48.128;11.476;2023-04-01T20:41:02;7.70;99.90
12166;DHT22;6146;48.128;11.476;2023-04-01T20:43:45;7.70;99.90
12166;DHT22;6146;48.128;11.476;2023-04-01T20:46:22;7.70;99.90
12166;DHT22;6146;48.128;11.476;2023-04-01T20:51:59;7.70;99.90
12166;DHT22;6146;48.128;11.476;2023-04-01T21:00:11;7.90;99.90
12166;DHT22;6146;48.128;11.476;2023-04-01T21:22:19;8.00;99.90
12166;DHT22;6146;48.128;11.476;2023-04-01T21:42:03;8.10;99.90
12166;DHT22;6146;48.128;11.476;2023-04-01T21:50:47;8.20;99.90
12166;DHT22;6146;48.128;11.476;2023-04-01T22:02:09;8.10;99.90
12166;DHT22;6146;48.128;11.476;2023-04-01T22:05:09;8.10;99.90
12166;DHT22;6146;48.128;11.476;2023-04-01T22:07:59;8.10;99.90
12166;DHT22;6146;48.128;11.476;2023-04-01T22:10:33;8.10;99.90
12166;DHT22;6146;48.128;11.476;2023-04-01T22:13:39;8.10;99.90
12166;DHT22;6146;48.128;11.476;2023-04-01T22:19:04;8.20;99.90
12166;DHT22;6146;48.128;11.476;2023-04-01T22:21:56;8.30;99.90
12166;DHT22;6146;48.128;11.476;2023-04-01T22:29:40;8.40;99.90
12166;DHT22;6146;48.128;11.476;2023-04-01T22:32:13;8.30;99.90
12166;DHT22;6146;48.128;11.476;2023-04-01T22:35:08;8.30;99.90
12166;DHT22;6146;48.128;11.476;2023-04-01T22:37:54;8.40;99.90
12166;DHT22;6146;48.128;11.476;2023-04-01T22:49:12;8.20;99.90
12166;DHT22;6146;48.128;11.476;2023-04-01T22:51:52;8.30;99.90
12166;DHT22;6146;48.128;11.476;2023-04-01T22:54:34;8.20;99.90
12166;DHT22;6146;48.128;11.476;2023-04-01T22:57:10;8.20;99.90
12166;DHT22;6146;48.128;11.476;2023-04-01T23:00:00;8.30;99.90
12166;DHT22;6146;48.128;11.476;2023-04-01T23:02:30;8.30;99.90
12166;DHT22;6146;48.128;11.476;2023-04-01T23:05:00;8.30;99.90
12166;DHT22;6146;48.128;11.476;2023-04-01T23:12:58;8.20;99.90
12166;DHT22;6146;48.128;11.476;2023-04-01T23:15:27;8.20;99.90
12166;DHT22;6146;48.128;11.476;2023-04-01T23:18:05;8.20;99.90
12166;DHT22;6146;48.128;11.476;2023-04-01T23:20:50;8.20;99.90
12166;DHT22;6146;48.128;11.476;2023-04-01T23:28:52;8.20;99.90
12166;DHT22;6146;48.128;11.476;2023-04-01T23:31:39;8.20;99.90
12166;DHT22;6146;48.128;11.476;2023-04-01T23:36:42;8.10;99.90
12166;DHT22;6146;48.128;11.476;2023-04-01T23:39:33;8.10;99.90
12166;DHT22;6146;48.128;11.476;2023-04-01T23:44:48;8.10;99.90
12166;DHT22;6146;48.128;11.476;2023-04-01T23:47:30;8.10;99.90
12166;DHT22;6146;48.128;11.476;2023-04-01T23:50:27;8.10;99.90
12166;DHT22;6146;48.128;11.476;2023-04-01T23:53:08;8.10;99.90
12166;DHT22;6146;48.128;11.476;2023-04-01T23:55:41;8.10;99.90
